Time;durP1;ratioP1;P1;durP2;ratioP2;P2;SDS_P1;SDS_P2;PMS_P1;PMS_P2;Temp;Humidity;BMP_temperature;BMP_pressure;BME280_temperature;BME280_humidity;BME280_pressure;Samples;Min_cycle;Max_cycle;Signal;HPM_P1;HPM_P2
2023/05/01 00:02:01;;;;;;;;;;;;;;;7.50;68.09;100647.97;5059513;28;2233;-80
2023/05/01 00:04:53;;;;;;;;;;;;;;;7.50;68.02;100652.50;5058023;28;2315;-80
2023/05/01 00:07:45;;;;;;;;;;;;;;;7.49;67.97;100646.28;5054811;28;4820;-82
2023/05/01 00:10:37;;;;;;;;;;;;;;;7.48;67.95;100644.63;5059285;28;2964;-82
2023/05/01 00:13:30;;;;;;;;;;;;;;;7.47;67.82;100640.31;5057142;28;3216;-81
2023/05/01 00:16:21;;;;;;;;;;;;;;;7.47;67.66;100631.41;5062206;28;2167;-82
2023/05/01 00:19:17;;;;;;;;;;;;;;;7.46;67.59;100633.28;5057182;28;2331;-82
2023/05/01 00:22:08;;;;;;;;;;;;;;;7.45;67.75;100628.94;5056280;28;2267;-80
2023/05/01 00:24:59;;;;;;;;;;;;;;;7.45;67.72;100625.44;5056196;28;2190;-81
2023/05/01 00:27:51;;;;;;;;;;;;;;;7.45;67.53;100636.16;5056661;28;2292;-82
2023/05/01 00:30:44;;;;;;;;;;;;;;;7.44;67.77;100627.31;5060616;28;2396;-82
2023/05/01 00:33:35;;;;;;;;;;;;;;;7.44;67.76;100629.13;5059783;28;2323;-82
2023/05/01 00:36:27;;;;;;;;;;;;;;;7.44;67.70;100631.81;5056240;28;2279;-80
2023/05/01 00:39:19;;;;;;;;;;;;;;;7.43;67.95;100630.16;5057211;28;2268;-81
2023/05/01 00:42:11;;;;;;;;;;;;;;;7.42;67.79;100632.03;5056679;28;2259;-82
2023/05/01 00:45:03;;;;;;;;;;;;;;;7.42;67.73;100641.94;5058661;28;2483;-81
2023/05/01 00:47:55;;;;;;;;;;;;;;;7.41;68.02;100629.53;5059335;28;2234;-80
2023/05/01 00:50:47;;;;;;;;;;;;;;;7.40;67.62;100622.53;5055799;28;2416;-83
2023/05/01 00:53:39;;;;;;;;;;;;;;;7.40;67.62;100631.38;5057215;28;2183;-81
2023/05/01 00:56:30;;;;;;;;;;;;;;;7.39;67.73;100613.66;5055588;28;2426;-81
2023/05/01 00:59:22;;;;;;;;;;;;;;;7.39;67.65;100618.19;5057503;28;2267;-80
2023/05/01 01:02:14;;;;;;;;;;;;;;;7.38;67.87;100617.38;5055570;28;2222;-81
2023/05/01 01:05:06;;;;;;;;;;;;;;;7.36;67.35;100616.75;5053666;28;5183;-80
2023/05/01 01:07:57;;;;;;;;;;;;;;;7.36;67.44;100613.25;5056765;28;3880;-81
2023/05/01 01:10:49;;;;;;;;;;;;;;;7.35;67.41;100608.88;5058409;28;3871;-80
2023/05/01 01:13:41;;;;;;;;;;;;;;;7.34;67.71;100597.34;5050526;28;4808;-82
2023/05/01 01:16:33;;;;;;;;;;;;;;;7.35;67.76;100587.44;5056234;28;3183;-80
2023/05/01 01:19:25;;;;;;;;;;;;;;;7.33;67.42;100595.69;5062457;28;3243;-82
2023/05/01 01:22:17;;;;;;;;;;;;;;;7.33;67.46;100595.69;5056791;28;2123;-81
2023/05/01 01:25:09;;;;;;;;;;;;;;;7.33;67.65;100589.53;5055325;28;2249;-80
2023/05/01 01:28:01;;;;;;;;;;;;;;;7.31;67.41;100584.34;5061012;28;2333;-80
2023/05/01 01:30:55;;;;;;;;;;;;;;;7.32;67.64;100582.50;5056411;28;2373;-81
2023/05/01 01:33:47;;;;;;;;;;;;;;;7.32;67.27;100582.50;5058060;28;2278;-80
2023/05/01 01:36:39;;;;;;;;;;;;;;;7.30;67.29;100579.19;5056819;28;2285;-82
2023/05/01 01:39:31;;;;;;;;;;;;;;;7.28;67.26;100569.50;5057409;28;2265;-81
2023/05/01 01:42:25;;;;;;;;;;;;;;;7.28;67.43;100574.84;5058551;28;2241;-82
2023/05/01 01:45:18;;;;;;;;;;;;;;;7.28;66.97;100566.81;5054922;28;2234;-81
2023/05/01 01:48:09;;;;;;;;;;;;;;;7.28;67.37;100574.84;5055309;28;2130;-79
2023/05/01 01:51:01;;;;;;;;;;;;;;;7.28;67.32;100568.66;5060353;28;2118;-82
2023/05/01 01:53:53;;;;;;;;;;;;;;;7.27;67.30;100564.34;5063487;28;2123;-81
2023/05/01 01:56:45;;;;;;;;;;;;;;;7.26;67.26;100562.66;5054986;28;2187;-80
2023/05/01 01:59:37;;;;;;;;;;;;;;;7.26;67.22;100560.84;5060746;28;2322;-80
2023/05/01 02:02:29;;;;;;;;;;;;;;;7.25;67.27;100556.50;5055997;28;2233;-80
2023/05/01 02:05:21;;;;;;;;;;;;;;;7.25;67.38;100553.81;5059387;28;2208;-80
2023/05/01 02:08:12;;;;;;;;;;;;;;;7.24;67.27;100552.16;5053835;28;2186;-81
2023/05/01 02:11:04;;;;;;;;;;;;;;;7.25;67.25;100553.00;5053061;28;2354;-81
2023/05/01 02:13:56;;;;;;;;;;;;;;;7.25;67.43;100547.63;5057206;28;2115;-81
2023/05/01 02:16:48;;;;;;;;;;;;;;;7.24;67.40;100546.00;5020778;28;2298;-81
2023/05/01 02:19:40;;;;;;;;;;;;;;;7.23;67.26;100541.63;5011939;28;4400;-80
2023/05/01 02:22:32;;;;;;;;;;;;;;;7.23;67.12;100541.63;5021330;28;3201;-81
2023/05/01 02:25:24;;;;;;;;;;;;;;;7.22;67.11;100545.34;5015405;28;2414;-82
2023/05/01 02:28:16;;;;;;;;;;;;;;;7.21;67.50;100527.63;5015169;28;2425;-81
2023/05/01 02:31:08;;;;;;;;;;;;;;;7.21;67.35;100533.81;5019960;28;2414;-81
2023/05/01 02:34:00;;;;;;;;;;;;;;;7.21;67.15;100533.00;5015895;28;2360;-81
2023/05/01 02:36:52;;;;;;;;;;;;;;;7.19;67.44;100535.84;5017383;28;2284;-81
2023/05/01 02:39:44;;;;;;;;;;;;;;;7.19;67.37;100525.13;5015080;28;3804;-79
2023/05/01 02:42:36;;;;;;;;;;;;;;;7.18;67.10;100531.53;5018321;28;2150;-81
2023/05/01 02:45:28;;;;;;;;;;;;;;;7.18;67.43;100522.66;5014773;28;2147;-82
2023/05/01 02:48:20;;;;;;;;;;;;;;;7.18;66.88;100520.81;5017353;28;2454;-82
2023/05/01 02:51:12;;;;;;;;;;;;;;;7.16;66.86;100519.34;5015488;28;2335;-82
2023/05/01 02:54:04;;;;;;;;;;;;;;;7.18;67.24;100518.13;5016471;28;2192;-83
2023/05/01 02:56:58;;;;;;;;;;;;;;;7.17;67.11;100515.63;5016898;28;2109;-81
2023/05/01 02:59:50;;;;;;;;;;;;;;;7.15;67.18;100510.50;5014615;28;2184;-81
2023/05/01 03:02:42;;;;;;;;;;;;;;;7.15;67.03;100507.81;5018800;28;2385;-82
2023/05/01 03:05:35;;;;;;;;;;;;;;;7.15;67.42;100504.31;5015427;28;2164;-82
2023/05/01 03:08:26;;;;;;;;;;;;;;;7.14;66.98;100500.78;5018617;28;2243;-81
2023/05/01 03:11:18;;;;;;;;;;;;;;;7.16;67.04;100487.22;5013627;28;2132;-82
2023/05/01 03:14:10;;;;;;;;;;;;;;;7.14;67.19;100487.41;5020194;28;2338;-81
2023/05/01 03:17:01;;;;;;;;;;;;;;;7.17;67.19;100484.31;5061144;28;2247;-81
2023/05/01 03:19:53;;;;;;;;;;;;;;;7.14;66.81;100484.72;5057912;28;2436;-82
2023/05/01 03:22:45;;;;;;;;;;;;;;;7.12;67.31;100484.13;5065964;28;2393;-80
2023/05/01 03:25:37;;;;;;;;;;;;;;;7.16;66.80;100482.69;5050896;28;4925;-82
2023/05/01 03:28:30;;;;;;;;;;;;;;;7.12;66.84;100475.22;5058494;28;3203;-81
2023/05/01 03:31:21;;;;;;;;;;;;;;;7.10;66.91;100478.13;5059649;28;4162;-81
2023/05/01 03:34:13;;;;;;;;;;;;;;;7.12;66.91;100473.41;5061673;28;2477;-82
2023/05/01 03:37:04;;;;;;;;;;;;;;;7.15;66.71;100474.84;5059494;28;4156;-81
2023/05/01 03:39:56;;;;;;;;;;;;;;;7.29;66.03;100484.56;5064179;28;2393;-82
2023/05/01 03:42:48;;;;;;;;;;;;;;;7.31;66.02;100479.03;5060910;28;4089;-81
2023/05/01 03:45:40;;;;;;;;;;;;;;;7.13;66.58;100467.00;5062519;28;2401;-81
2023/05/01 03:48:32;;;;;;;;;;;;;;;7.32;66.14;100473.47;5063602;28;2379;-82
2023/05/01 03:51:24;;;;;;;;;;;;;;;7.24;66.28;100468.31;5062313;28;2245;-82
2023/05/01 03:54:16;;;;;;;;;;;;;;;7.24;66.12;100457.59;5073903;28;4118;-81
2023/05/01 03:57:08;;;;;;;;;;;;;;;7.30;66.02;100462.16;5062932;28;2301;-82
2023/05/01 04:00:00;;;;;;;;;;;;;;;7.18;66.68;100453.84;5074167;28;2347;-81
2023/05/01 04:02:52;;;;;;;;;;;;;;;7.22;66.23;100456.94;5057173;28;2429;-81
2023/05/01 04:05:44;;;;;;;;;;;;;;;7.20;66.63;100451.78;5061400;28;2361;-80
2023/05/01 04:08:36;;;;;;;;;;;;;;;7.17;66.54;100454.84;5058969;28;2412;-82
2023/05/01 04:11:28;;;;;;;;;;;;;;;7.46;65.64;100452.91;5063301;28;2562;-82
2023/05/01 04:14:20;;;;;;;;;;;;;;;7.17;66.38;100454.84;5060163;28;2374;-81
2023/05/01 04:17:12;;;;;;;;;;;;;;;7.14;66.75;100451.75;5063324;28;2446;-83
2023/05/01 04:20:05;;;;;;;;;;;;;;;7.52;65.46;100449.41;5056596;28;2186;-81
2023/05/01 04:22:56;;;;;;;;;;;;;;;7.49;65.36;100449.81;5056595;28;2367;-83
2023/05/01 04:25:48;;;;;;;;;;;;;;;7.20;66.18;100448.28;5059876;28;5061;-83
2023/05/01 04:28:40;;;;;;;;;;;;;;;7.37;65.63;100440.72;5057375;28;4039;-82
2023/05/01 04:31:33;;;;;;;;;;;;;;;7.17;66.00;100438.78;5057731;28;3062;-80
2023/05/01 04:34:28;;;;;;;;;;;;;;;7.60;64.98;100440.38;5057167;28;2258;-81
2023/05/01 04:37:19;;;;;;;;;;;;;;;7.29;65.84;100439.03;5055932;28;2541;-81
2023/05/01 04:40:11;;;;;;;;;;;;;;;7.47;65.28;100439.31;5061286;28;2134;-80
2023/05/01 04:43:03;;;;;;;;;;;;;;;7.38;65.30;100437.00;5057346;28;2176;-83
2023/05/01 04:45:55;;;;;;;;;;;;;;;7.25;65.43;100435.94;5057698;28;2099;-82
2023/05/01 04:48:46;;;;;;;;;;;;;;;7.23;66.15;100426.44;5062382;28;2241;-82
2023/05/01 04:51:38;;;;;;;;;;;;;;;7.47;65.04;100422.41;5058659;28;2297;-80
2023/05/01 04:54:30;;;;;;;;;;;;;;;7.48;64.97;100421.38;5056431;28;2146;-82
2023/05/01 04:57:22;;;;;;;;;;;;;;;7.67;64.57;100420.59;5054140;28;2314;-83
2023/05/01 05:00:14;;;;;;;;;;;;;;;7.83;64.05;100423.94;5054683;28;2206;-81
2023/05/01 05:03:06;;;;;;;;;;;;;;;7.36;64.96;100410.44;5056407;28;2189;-80
2023/05/01 05:05:58;;;;;;;;;;;;;;;7.34;65.35;100406.28;5056603;28;2194;-81
2023/05/01 05:08:50;;;;;;;;;;;;;;;7.21;65.54;100407.09;5054413;28;2157;-82
2023/05/01 05:11:42;;;;;;;;;;;;;;;7.40;64.69;100406.31;5061338;28;2710;-80
2023/05/01 05:14:35;;;;;;;;;;;;;;;7.50;64.99;100403.25;5070545;28;2439;-81
2023/05/01 05:17:26;;;;;;;;;;;;;;;7.55;64.45;100405.31;5071651;28;1736;-82
2023/05/01 05:20:18;;;;;;;;;;;;;;;7.21;65.41;100391.03;5067049;28;2270;-81
2023/05/01 05:23:10;;;;;;;;;;;;;;;7.35;64.97;100392.69;5065644;28;1635;-82
2023/05/01 05:26:02;;;;;;;;;;;;;;;7.27;65.25;100395.56;5080060;28;1775;-82
2023/05/01 05:28:54;;;;;;;;;;;;;;;7.43;65.17;100386.31;5073635;28;1717;-80
2023/05/01 05:31:46;;;;;;;;;;;;;;;7.31;65.23;100382.59;5070023;28;5023;-80
2023/05/01 05:34:37;;;;;;;;;;;;;;;7.34;65.24;100385.69;5069733;28;4338;-82
2023/05/01 05:37:29;;;;;;;;;;;;;;;7.14;65.40;100376.75;5068836;28;4114;-79
2023/05/01 05:40:21;;;;;;;;;;;;;;;7.08;65.74;100381.06;5074771;28;1361;-81
2023/05/01 05:43:12;;;;;;;;;;;;;;;7.11;65.54;100380.66;5073327;28;1232;-79
2023/05/01 05:46:04;;;;;;;;;;;;;;;7.03;66.03;100378.19;5068038;28;1575;-79
2023/05/01 05:48:56;;;;;;;;;;;;;;;7.14;65.61;100366.06;5065496;28;1539;-79
2023/05/01 05:51:48;;;;;;;;;;;;;;;7.17;65.75;100368.31;5066955;28;4730;-81
2023/05/01 05:54:40;;;;;;;;;;;;;;;7.07;65.56;100368.72;5071853;28;1365;-79
2023/05/01 05:57:34;;;;;;;;;;;;;;;7.27;65.37;100360.75;5068569;28;1654;-79
2023/05/01 06:00:26;;;;;;;;;;;;;;;7.02;65.78;100360.44;5064505;28;2572;-78
2023/05/01 06:03:18;;;;;;;;;;;;;;;6.98;65.94;100353.84;5068130;28;1737;-79
2023/05/01 06:06:09;;;;;;;;;;;;;;;6.96;66.24;100350.53;5065957;28;4937;-79
2023/05/01 06:09:02;;;;;;;;;;;;;;;7.09;65.57;100344.41;5053885;28;2288;-79
2023/05/01 06:11:54;;;;;;;;;;;;;;;6.95;65.90;100347.06;5064166;28;4183;-79
2023/05/01 06:14:46;;;;;;;;;;;;;;;7.00;65.92;100347.28;5052386;28;2333;-81
2023/05/01 06:17:38;;;;;;;;;;;;;;;6.85;66.48;100343.09;5055747;28;2068;-79
2023/05/01 06:20:30;;;;;;;;;;;;;;;6.86;66.27;100332.19;5051716;28;2323;-79
2023/05/01 06:23:22;;;;;;;;;;;;;;;6.99;66.23;100340.25;5052869;28;4234;-79
2023/05/01 06:26:14;;;;;;;;;;;;;;;7.00;65.57;100327.69;5053880;28;2174;-78
2023/05/01 06:29:06;;;;;;;;;;;;;;;6.93;65.97;100318.81;5053872;28;2392;-80
2023/05/01 06:31:58;;;;;;;;;;;;;;;7.00;65.75;100322.31;5064497;28;2171;-79
2023/05/01 06:34:49;;;;;;;;;;;;;;;6.82;66.30;100318.38;5058724;28;2377;-81
2023/05/01 06:37:41;;;;;;;;;;;;;;;6.82;66.56;100309.50;5048537;28;2361;-79
2023/05/01 06:40:34;;;;;;;;;;;;;;;6.99;65.88;100307.31;5049124;28;2416;-80
2023/05/01 06:43:29;;;;;;;;;;;;;;;6.92;65.96;100298.44;5055867;28;3877;-81
2023/05/01 06:46:20;;;;;;;;;;;;;;;6.82;66.15;100294.28;5063162;28;1887;-81
2023/05/01 06:49:11;;;;;;;;;;;;;;;6.85;66.25;100293.03;5074311;28;2778;-80
2023/05/01 06:52:03;;;;;;;;;;;;;;;6.77;66.31;100279.88;5070239;28;1902;-80
2023/05/01 06:54:55;;;;;;;;;;;;;;;6.76;66.61;100280.88;5066454;28;2142;-80
2023/05/01 06:57:47;;;;;;;;;;;;;;;6.74;66.72;100285.63;5049491;28;2220;-82
2023/05/01 07:00:39;;;;;;;;;;;;;;;6.76;66.39;100291.56;5059214;28;3321;-80
2023/05/01 07:03:31;;;;;;;;;;;;;;;6.75;66.53;100288.09;5048736;28;2279;-80
2023/05/01 07:06:23;;;;;;;;;;;;;;;6.73;66.63;100286.63;5051569;28;2432;-81
2023/05/01 07:09:16;;;;;;;;;;;;;;;6.74;66.49;100282.94;5047887;28;2521;-81
2023/05/01 07:12:07;;;;;;;;;;;;;;;6.71;66.63;100275.31;5048598;28;2470;-80
2023/05/01 07:14:59;;;;;;;;;;;;;;;6.79;66.35;100275.97;5054452;28;2383;-80
2023/05/01 07:17:52;;;;;;;;;;;;;;;6.78;66.13;100268.94;5048284;28;2319;-81
2023/05/01 07:20:43;;;;;;;;;;;;;;;6.78;66.33;100260.09;5047796;28;2080;-81
2023/05/01 07:23:35;;;;;;;;;;;;;;;6.72;66.34;100253.69;5049034;28;2228;-78
2023/05/01 07:26:27;;;;;;;;;;;;;;;6.68;66.46;100249.78;5056567;28;2394;-80
2023/05/01 07:29:19;;;;;;;;;;;;;;;6.66;66.31;100235.75;5059889;28;2186;-79
2023/05/01 07:32:11;;;;;;;;;;;;;;;6.67;66.60;100232.06;5048459;28;2221;-79
2023/05/01 07:35:03;;;;;;;;;;;;;;;6.66;66.72;100221.56;5047552;28;2268;-81
2023/05/01 07:37:55;;;;;;;;;;;;;;;6.66;66.43;100216.22;5050173;28;2247;-80
2023/05/01 07:40:47;;;;;;;;;;;;;;;6.67;66.62;100213.31;5046850;28;2193;-79
2023/05/01 07:43:39;;;;;;;;;;;;;;;6.68;66.52;100214.16;5046959;28;2037;-79
2023/05/01 07:46:30;;;;;;;;;;;;;;;4.91;70.03;100202.00;5046192;28;4725;-79
2023/05/01 07:49:23;;;;;;;;;;;;;;;5.86;68.03;100197.97;5060453;28;4781;-78
2023/05/01 07:52:14;;;;;;;;;;;;;;;6.47;66.92;100199.06;5072376;28;1960;-79
2023/05/01 07:55:06;;;;;;;;;;;;;;;6.48;66.27;100193.53;5062524;28;1872;-78
2023/05/01 07:57:58;;;;;;;;;;;;;;;6.58;66.00;100188.59;5057936;28;1917;-80
2023/05/01 08:00:50;;;;;;;;;;;;;;;6.60;65.75;100185.72;5072581;28;2089;-78
2023/05/01 08:03:42;;;;;;;;;;;;;;;6.60;66.21;100185.72;5066393;28;1724;-79
2023/05/01 08:06:34;;;;;;;;;;;;;;;6.60;66.15;100177.69;5066747;28;1713;-80
2023/05/01 08:09:26;;;;;;;;;;;;;;;6.58;66.17;100183.25;5070729;28;1865;-78
2023/05/01 08:12:19;;;;;;;;;;;;;;;6.54;66.33;100173.97;5072383;28;1906;-76
2023/05/01 08:15:10;;;;;;;;;;;;;;;6.54;66.33;100168.63;5060367;28;2254;-79
2023/05/01 08:18:02;;;;;;;;;;;;;;;6.67;65.69;100170.50;5075023;28;1749;-77
2023/05/01 08:20:54;;;;;;;;;;;;;;;6.57;65.79;100167.41;5061950;28;5148;-79
2023/05/01 08:23:47;;;;;;;;;;;;;;;6.55;66.31;100169.44;5044427;28;2551;-78
2023/05/01 08:26:38;;;;;;;;;;;;;;;6.53;65.93;100161.63;5051626;28;2334;-76
2023/05/01 08:29:30;;;;;;;;;;;;;;;6.54;66.34;100157.94;5055433;28;29750;-75
2023/05/01 08:32:22;;;;;;;;;;;;;;;6.53;66.40;100158.13;5070598;28;2002;-76
2023/05/01 08:35:14;;;;;;;;;;;;;;;6.52;66.25;100154.63;5074904;28;1966;-75
2023/05/01 08:38:05;;;;;;;;;;;;;;;6.54;66.24;100157.94;5058252;28;2427;-76
2023/05/01 08:41:00;;;;;;;;;;;;;;;6.51;66.42;100150.31;5071917;28;2526;-76
2023/05/01 08:43:51;;;;;;;;;;;;;;;6.52;66.04;100149.28;5072273;28;2168;-75
2023/05/01 08:46:43;;;;;;;;;;;;;;;6.50;66.30;100147.81;5064352;28;4405;-75
2023/05/01 08:49:36;;;;;;;;;;;;;;;6.49;66.28;100135.47;5054399;28;2997;-76
2023/05/01 08:52:27;;;;;;;;;;;;;;;6.50;66.30;100134.44;5051221;28;2952;-78
2023/05/01 08:55:19;;;;;;;;;;;;;;;6.50;66.35;100131.75;5057221;28;2159;-77
2023/05/01 08:58:11;;;;;;;;;;;;;;;6.48;66.24;100123.16;5050402;28;2138;-78
2023/05/01 09:01:04;;;;;;;;;;;;;;;6.49;66.31;100122.09;5052412;28;2286;-77
2023/05/01 09:03:56;;;;;;;;;;;;;;;6.48;66.10;100110.59;5051005;28;2131;-76
2023/05/01 09:06:48;;;;;;;;;;;;;;;6.49;66.32;100109.53;5049167;28;2461;-77
2023/05/01 09:09:39;;;;;;;;;;;;;;;6.47;66.34;100106.28;5051983;28;2181;-78
2023/05/01 09:12:34;;;;;;;;;;;;;;;6.47;66.17;100100.06;5058744;28;2115;-75
2023/05/01 09:15:25;;;;;;;;;;;;;;;6.46;66.31;100096.56;5053710;28;2208;-78
2023/05/01 09:18:28;;;;;;;;;;;;;;;6.46;66.21;100093.91;5065829;28;2442;-77
2023/05/01 09:21:19;;;;;;;;;;;;;;;6.47;66.40;100092.03;5071992;28;1756;-77
2023/05/01 09:24:11;;;;;;;;;;;;;;;6.47;66.30;100084.88;5067655;28;1941;-78
2023/05/01 09:27:04;;;;;;;;;;;;;;;6.03;66.36;100023.88;5046102;28;2231;-79
2023/05/01 09:29:55;;;;;;;;;;;;;;;6.44;66.50;100074.56;5069074;28;2183;-79
2023/05/01 09:32:47;;;;;;;;;;;;;;;6.45;66.51;100075.41;5072201;28;1973;-78
2023/05/01 09:35:39;;;;;;;;;;;;;;;6.44;66.43;100066.56;5065520;28;3203;-79
2023/05/01 09:38:31;;;;;;;;;;;;;;;6.42;66.23;100068.59;5072236;28;1504;-78
2023/05/01 09:41:23;;;;;;;;;;;;;;;6.44;66.44;100068.38;5069597;28;3842;-79
2023/05/01 09:44:16;;;;;;;;;;;;;;;6.43;66.20;100056.84;5068552;28;2087;-81
2023/05/01 09:47:08;;;;;;;;;;;;;;;6.42;66.49;100043.72;5066033;28;2278;-78
2023/05/01 09:49:59;;;;;;;;;;;;;;;6.42;66.50;100047.19;5072606;28;2120;-79
2023/05/01 09:52:52;;;;;;;;;;;;;;;6.40;66.22;100033.19;5067305;28;3078;-80
2023/05/01 09:55:43;;;;;;;;;;;;;;;6.41;66.32;100034.84;5066023;28;4318;-80
2023/05/01 09:58:35;;;;;;;;;;;;;;;6.41;66.14;100026.00;5063061;28;1500;-79
2023/05/01 10:01:28;;;;;;;;;;;;;;;6.41;66.42;100029.47;5057863;28;3001;-80
2023/05/01 10:04:19;;;;;;;;;;;;;;;6.41;66.44;100031.34;5057557;28;2188;-80
2023/05/01 10:07:11;;;;;;;;;;;;;;;6.41;66.52;100028.66;5057436;28;2227;-80
2023/05/01 10:10:02;;;;;;;;;;;;;;;6.39;66.50;100025.38;5057107;28;2119;-81
2023/05/01 10:12:54;;;;;;;;;;;;;;;6.38;66.41;100024.53;5061536;28;3991;-82
2023/05/01 10:15:46;;;;;;;;;;;;;;;5.87;66.17;99942.22;5057777;28;2200;-80
2023/05/01 10:18:38;;;;;;;;;;;;;;;6.39;66.06;100025.38;5055509;28;2248;-81
2023/05/01 10:21:31;;;;;;;;;;;;;;;6.38;66.36;100019.19;5052926;28;2206;-79
2023/05/01 10:24:22;;;;;;;;;;;;;;;6.37;66.20;100018.38;5072454;28;2096;-81
2023/05/01 10:27:15;;;;;;;;;;;;;;;6.38;66.28;100019.19;5069495;28;1118;-80
2023/05/01 10:30:07;;;;;;;;;;;;;;;6.36;66.23;100008.72;5073149;28;1332;-81
2023/05/01 10:32:59;;;;;;;;;;;;;;;6.38;66.08;100008.50;5065208;28;1914;-80
2023/05/01 10:35:51;;;;;;;;;;;;;;;6.36;66.25;100011.38;5074348;28;1736;-82
2023/05/01 10:38:47;;;;;;;;;;;;;;;6.36;66.48;100007.91;5077015;28;1089;-80
2023/05/01 10:41:38;;;;;;;;;;;;;;;6.38;66.23;100000.47;5065828;28;1321;-81
2023/05/01 10:44:30;;;;;;;;;;;;;;;6.35;66.29;99995.53;5072072;28;1026;-80
2023/05/01 10:47:22;;;;;;;;;;;;;;;6.34;66.26;99986.69;5073458;28;1316;-80
2023/05/01 10:50:15;;;;;;;;;;;;;;;6.34;66.23;99989.38;5066514;28;1612;-80
2023/05/01 10:53:06;;;;;;;;;;;;;;;6.33;66.46;99990.41;5071837;28;2023;-80
2023/05/01 10:55:58;;;;;;;;;;;;;;;6.34;66.49;99975.16;5085972;28;5070;-81
2023/05/01 10:58:51;;;;;;;;;;;;;;;6.34;66.30;99975.16;5074133;28;4262;-81
2023/05/01 11:01:44;;;;;;;;;;;;;;;6.32;66.50;99978.06;5060773;28;1199;-81
2023/05/01 11:04:35;;;;;;;;;;;;;;;6.33;66.26;99973.53;5073411;28;1107;-81
2023/05/01 11:07:27;;;;;;;;;;;;;;;6.32;66.07;99970.03;5061520;28;1349;-81
2023/05/01 11:10:18;;;;;;;;;;;;;;;6.31;66.29;99962.22;5081418;28;1792;-80
2023/05/01 11:13:09;;;;;;;;;;;;;;;6.31;66.22;99967.56;5067467;28;1955;-81
2023/05/01 11:16:01;;;;;;;;;;;;;;;6.30;66.12;99960.56;5072523;28;2476;-80
2023/05/01 11:18:53;;;;;;;;;;;;;;;6.30;66.35;99964.06;5066468;28;1210;-81
2023/05/01 11:21:45;;;;;;;;;;;;;;;6.31;66.15;99959.53;5073740;28;1500;-80
2023/05/01 11:24:37;;;;;;;;;;;;;;;6.30;66.38;99961.41;5064318;28;934;-81
2023/05/01 11:27:28;;;;;;;;;;;;;;;6.30;66.16;99963.25;5076412;28;1038;-82
2023/05/01 11:30:20;;;;;;;;;;;;;;;6.30;66.20;99955.22;5080083;28;1097;-81
2023/05/01 11:33:12;;;;;;;;;;;;;;;6.29;66.64;99962.41;5054778;28;1902;-83
2023/05/01 11:36:04;;;;;;;;;;;;;;;6.29;66.45;99961.59;5076914;28;927;-81
2023/05/01 11:38:57;;;;;;;;;;;;;;;6.30;66.49;99961.41;5070240;28;1344;-81
2023/05/01 11:41:48;;;;;;;;;;;;;;;6.29;66.11;99950.88;5068260;28;1240;-82
2023/05/01 11:44:40;;;;;;;;;;;;;;;6.28;66.47;99944.72;5069441;28;1407;-81
2023/05/01 11:47:32;;;;;;;;;;;;;;;6.29;66.53;99942.88;5060182;28;1089;-82
2023/05/01 11:50:24;;;;;;;;;;;;;;;6.29;66.20;99948.22;5065457;28;999;-83
2023/05/01 11:53:17;;;;;;;;;;;;;;;6.28;66.48;99939.38;5072832;28;1960;-82
2023/05/01 11:56:08;;;;;;;;;;;;;;;6.29;66.33;99941.00;5077702;28;1224;-82
2023/05/01 11:59:01;;;;;;;;;;;;;;;6.29;66.40;99937.50;5059362;28;1093;-82
2023/05/01 12:01:52;;;;;;;;;;;;;;;6.27;66.42;99937.75;5067221;28;1550;-82
2023/05/01 12:04:44;;;;;;;;;;;;;;;6.30;66.46;99931.16;5074519;28;4832;-83
2023/05/01 12:07:36;;;;;;;;;;;;;;;6.29;66.22;99926.81;5077448;28;994;-83
2023/05/01 12:10:28;;;;;;;;;;;;;;;6.28;66.38;99922.50;5063930;28;2478;-83
2023/05/01 12:13:19;;;;;;;;;;;;;;;6.28;66.02;99915.31;5068852;28;2060;-82
2023/05/01 12:16:11;;;;;;;;;;;;;;;6.29;66.22;99921.47;5059999;28;2340;-82
2023/05/01 12:19:03;;;;;;;;;;;;;;;6.28;66.29;99920.66;5059314;28;2250;-82
2023/05/01 12:21:56;;;;;;;;;;;;;;;6.29;66.52;99918.78;5056244;28;3189;-82
2023/05/01 12:24:49;;;;;;;;;;;;;;;6.28;66.38;99923.31;5061609;28;2287;-82
2023/05/01 12:27:41;;;;;;;;;;;;;;;6.30;66.05;99923.13;5059627;28;2447;-81
2023/05/01 12:30:32;;;;;;;;;;;;;;;6.29;66.28;99916.13;5059490;28;2341;-83
2023/05/01 12:33:23;;;;;;;;;;;;;;;6.29;66.48;99913.44;5055691;28;2308;-82
2023/05/01 12:36:16;;;;;;;;;;;;;;;6.29;66.08;99916.13;5062236;28;2420;-83
2023/05/01 12:39:08;;;;;;;;;;;;;;;6.29;66.06;99906.25;5077687;28;1591;-83
2023/05/01 12:42:00;;;;;;;;;;;;;;;6.29;66.15;99910.78;5084004;28;1184;-82
2023/05/01 12:44:51;;;;;;;;;;;;;;;6.28;66.38;99907.28;5062864;28;1936;-82
2023/05/01 12:47:43;;;;;;;;;;;;;;;6.28;66.24;99909.94;5074899;28;2221;-84
2023/05/01 12:50:35;;;;;;;;;;;;;;;6.28;66.31;99898.44;5076821;28;1838;-83
2023/05/01 12:53:04;;;;;;;;;;;;;;;6.28;66.39;99906.47;5071440;28;1987;-82
2023/05/01 12:55:33;;;;;;;;;;;;;;;6.28;66.44;99896.59;5061540;28;2074;-82
2023/05/01 12:57:59;;;;;;;;;;;;;;;6.30;66.41;99891.03;5059832;28;2030;-82
2023/05/01 13:00:26;;;;;;;;;;;;;;;6.29;66.44;99887.53;5061194;28;2072;-83
2023/05/01 13:02:52;;;;;;;;;;;;;;;6.29;66.44;99887.53;5040085;28;2232;-82
2023/05/01 13:05:19;;;;;;;;;;;;;;;6.30;66.42;99877.66;5060844;28;2790;-82
2023/05/01 13:07:45;;;;;;;;;;;;;;;6.29;66.46;99884.84;5055223;28;2171;-82
2023/05/01 13:10:12;;;;;;;;;;;;;;;6.30;66.18;99885.69;5062394;28;4078;-83
2023/05/01 13:12:38;;;;;;;;;;;;;;;6.31;66.12;99884.66;5056211;28;3475;-81
2023/05/01 13:15:05;;;;;;;;;;;;;;;6.30;66.44;99889.19;5060615;28;2173;-82
2023/05/01 13:17:31;;;;;;;;;;;;;;;6.30;66.50;99891.03;5050113;28;3292;-82
2023/05/01 13:19:58;;;;;;;;;;;;;;;6.31;66.12;99887.31;5063074;28;2124;-82
2023/05/01 13:22:24;;;;;;;;;;;;;;;6.30;66.20;99891.84;5068989;28;1696;-82
2023/05/01 13:24:51;;;;;;;;;;;;;;;6.31;66.00;99885.47;5044823;28;2066;-82
2023/05/01 13:27:18;;;;;;;;;;;;;;;6.32;66.02;99878.25;5061473;28;874;-83
2023/05/01 13:29:45;;;;;;;;;;;;;;;6.32;66.33;99884.47;5040659;28;1523;-82
2023/05/01 13:32:12;;;;;;;;;;;;;;;6.32;66.42;99884.47;5045859;28;1853;-82
2023/05/01 13:34:38;;;;;;;;;;;;;;;6.31;66.36;99885.47;5070670;28;1902;-83
2023/05/01 13:37:05;;;;;;;;;;;;;;;6.32;66.34;99886.28;5056707;28;2106;-83
2023/05/01 13:39:31;;;;;;;;;;;;;;;6.31;66.41;99888.16;5068195;28;2251;-82
2023/05/01 13:41:58;;;;;;;;;;;;;;;6.31;66.31;99890.00;5064864;28;1268;-82
2023/05/01 13:44:27;;;;;;;;;;;;;;;6.31;66.42;99893.50;5043285;28;1338;-83
2023/05/01 13:46:53;;;;;;;;;;;;;;;6.31;66.08;99885.47;5060344;28;2246;-82
2023/05/01 13:49:20;;;;;;;;;;;;;;;6.31;66.04;99877.44;5055511;28;2242;-82
2023/05/01 13:51:47;;;;;;;;;;;;;;;6.31;66.18;99874.78;5060547;28;2139;-81
2023/05/01 13:54:14;;;;;;;;;;;;;;;6.32;66.13;99876.44;5064195;28;2207;-82
2023/05/01 13:56:41;;;;;;;;;;;;;;;6.31;66.02;99874.78;5045306;28;2085;-82
2023/05/01 13:59:07;;;;;;;;;;;;;;;6.32;66.51;99871.09;5060513;28;2172;-86
2023/05/01 14:01:34;;;;;;;;;;;;;;;6.33;66.42;99879.94;5058607;28;2040;-85
2023/05/01 14:04:00;;;;;;;;;;;;;;;6.34;66.40;99885.06;5041034;28;2151;-86
2023/05/01 14:06:27;;;;;;;;;;;;;;;6.33;66.23;99883.41;5062773;28;2129;-86
2023/05/01 14:08:54;;;;;;;;;;;;;;;6.35;66.05;99880.53;5057053;28;2298;-92
2023/05/01 14:11:21;;;;;;;;;;;;;;;6.35;66.34;99883.19;5049099;28;1180;-85
2023/05/01 14:13:48;;;;;;;;;;;;;;;6.34;66.37;99881.56;5052116;28;1910;-85
2023/05/01 14:16:15;;;;;;;;;;;;;;;6.35;66.24;99888.53;5063541;28;1509;-85
2023/05/01 14:18:43;;;;;;;;;;;;;;;6.35;66.41;99892.06;5066457;28;1029;-85
2023/05/01 14:21:10;;;;;;;;;;;;;;;6.35;66.25;99894.75;5050896;28;4823;-85
2023/05/01 14:23:36;;;;;;;;;;;;;;;6.36;66.28;99893.69;5064748;28;1569;-85
2023/05/01 14:26:03;;;;;;;;;;;;;;;6.35;66.30;99881.38;5055303;28;3979;-86
2023/05/01 14:28:30;;;;;;;;;;;;;;;6.36;66.32;99876.84;5060413;28;1719;-87
2023/05/01 14:30:56;;;;;;;;;;;;;;;6.36;66.25;99884.84;5045239;28;1471;-85
2023/05/01 14:33:25;;;;;;;;;;;;;;;6.36;66.41;99885.69;5066664;28;1975;-86
2023/05/01 14:35:51;;;;;;;;;;;;;;;6.36;66.32;99876.84;5056133;28;1211;-87
2023/05/01 14:38:18;;;;;;;;;;;;;;;6.36;66.38;99882.19;5058685;28;1474;-86
2023/05/01 14:40:44;;;;;;;;;;;;;;;6.37;66.26;99873.94;5067304;28;1087;-86
2023/05/01 14:43:11;;;;;;;;;;;;;;;6.36;66.00;99876.84;5063742;28;1325;-87
2023/05/01 14:45:38;;;;;;;;;;;;;;;6.37;66.06;99879.28;5057843;28;1228;-86
2023/05/01 14:48:05;;;;;;;;;;;;;;;6.38;65.98;99880.09;5061182;28;3705;-86
2023/05/01 14:50:31;;;;;;;;;;;;;;;6.37;66.19;99881.97;5069215;28;1356;-87